LESOLETO

Guest
Details From LESO - San Sebastian
To LETO - Torrejon
Flight Number -
Tags Generated
Created
Modified
Stats Distance 187 nm / 347 km
Max Altitude 0 ft / 0 m
Waypoints 2
Social Downloads 1
Likes 0
Share VATSIM

Download

Looking for another format? Having issues loading an existing format? Contact us
Advertisement - Login to hide

Notes

Generated

Route

LESO LETO

ID Type Via Altitude Latitude Longitude Leg Dist Tot Dist Heading (true) Name
O LESO APT - 0 ft / 0 m 43.35035˚ -1.79740˚ - 0 nm - -
O LETO APT - 0 ft / 0 m 40.48477˚ -3.46070˚ 187 nm 187 nm 204° / 203° -

Altitude Profile

Advertisement - Login to hide

Weather


0- 5 10 15 20 25 30 35+ Temperature / ° C

Clouds and Precipitation
Forecast for 2018-05-24 18:00 UTC. Updated an hour ago

Ground ~20,000 ft ~40,000 ft Winds

LESO

Details ICAO LESO (EAS)
Name San_Sebastian
Region Spain
Timezone Europe/Madrid (UTC+2.0)
Stats Elevation 14 ft / 4 m (AMSL)
Location 43.356520° -1.790611°
Runways 1
Magnetic Variation 0.243° W

METAR

LESO 241830Z 06005KT 360V090 9000 FEW008 FEW040TCU SCT050 20/19 Q1014

Decode

TAF

TAF LESO 241700Z 2418/2518 VRB06KT 9999 FEW030 TX23/2514Z TN15/2505Z TEMPO 2418/2424 SHRA SCT025TCU PROB40 TEMPO 2418/2421 3000 TSRA BKN012 SCT025CB PROB40 TEMPO 2504/2507 4000 BR PROB40 TEMPO 2507/2518 3000 SHRA TS BKN025CB

Decode

Departure Runways

ID Width Length Bearing (true) Bearing (mag) Surface Threshold Offset Overrun Length
04 148 ft / 45 m 5,762 ft / 1,756 m 38.68° 38.92° Asphalt 0 ft / 0 m 0 ft / 0 m
22 148 ft / 45 m 5,762 ft / 1,756 m 218.69° 218.93° Asphalt 0 ft / 0 m 0 ft / 0 m

LETO

Details ICAO LETO (TOJ)
Name Torrejon
Region Spain
Timezone Europe/Madrid (UTC+2.0)
Stats Elevation 2,025 ft / 617 m (AMSL)
Location 40.496746° -3.445870°
Runways 1
Magnetic Variation 0.600° W

METAR

LETO 241800Z 14015G26KT 9999 FEW050TCU 26/09 Q1010 NOSIG

Decode

TAF

TAF TAF LETO 241700Z 2418/2518 VRB05KT 9999 SCT045 TX25/2418Z TN14/2506Z TEMPO 2418/2424 VRB15G28KT SHRA SCT040CB PROB40 TEMPO 2418/2424 VRB25G35KT 3000 TS SHGR SCT030CB TEMPO 2500/2518 3000 RA SHRA SCT030TCU PROB40 TEMPO 2500/2516 VRB28G38KT 2000 TSRA SCT030CB PROB30 TEMPO 2508/2517 18010KT

Decode

Destination Runways

ID Width Length Bearing (true) Bearing (mag) Surface Threshold Offset Overrun Length
05 217 ft / 66 m 12,004 ft / 3,659 m 43.28° 43.88° Asphalt 0 ft / 0 m 2,739 ft / 835 m
23 217 ft / 66 m 12,004 ft / 3,659 m 223.30° 223.90° Asphalt 0 ft / 0 m 1,066 ft / 325 m

Approach Navaids

Runway Type Ident Frequency Range Bearing (true) Bearing (mag) Slope Elevation
23 Localiser ITJA 109.50 MHz 18 nm / 33 km 223.26° 223.86° - 2,025 ft / 617 m (AMSL)
23 Glidescope ITJA 109.50 MHz 10 nm / 19 km 223.29° 223.89° 3.00° 2,025 ft / 617 m (AMSL)
23 DME ITJA 109.50 MHz 18 nm / 33 km - - - 2,011 ft / 613 m (AMSL)